sensor_id;sensor_type;location;lat;lon;timestamp;P1;durP1;ratioP1;P2;durP2;ratioP2
57327;SDS011;43162;51.040;18.244;2023-12-20T00:00:08;9.00;;;4.80;;
57327;SDS011;43162;51.040;18.244;2023-12-20T00:02:34;8.80;;;4.50;;
57327;SDS011;43162;51.040;18.244;2023-12-20T00:05:00;10.50;;;5.40;;
57327;SDS011;43162;51.040;18.244;2023-12-20T00:07:25;7.40;;;4.30;;
57327;SDS011;43162;51.040;18.244;2023-12-20T00:09:51;13.70;;;5.50;;
57327;SDS011;43162;51.040;18.244;2023-12-20T00:12:16;6.60;;;3.30;;
57327;SDS011;43162;51.040;18.244;2023-12-20T00:14:42;10.80;;;5.20;;
57327;SDS011;43162;51.040;18.244;2023-12-20T00:17:07;9.80;;;6.20;;
57327;SDS011;43162;51.040;18.244;2023-12-20T00:19:33;12.70;;;6.10;;
57327;SDS011;43162;51.040;18.244;2023-12-20T00:21:59;12.00;;;6.10;;
57327;SDS011;43162;51.040;18.244;2023-12-20T00:24:25;10.50;;;5.90;;
57327;SDS011;43162;51.040;18.244;2023-12-20T00:26:50;7.10;;;5.00;;
57327;SDS011;43162;51.040;18.244;2023-12-20T00:29:16;11.00;;;5.50;;
57327;SDS011;43162;51.040;18.244;2023-12-20T00:31:42;8.00;;;5.20;;
57327;SDS011;43162;51.040;18.244;2023-12-20T00:34:07;6.00;;;4.70;;
57327;SDS011;43162;51.040;18.244;2023-12-20T00:36:32;9.50;;;5.60;;
57327;SDS011;43162;51.040;18.244;2023-12-20T00:38:58;10.50;;;5.60;;
57327;SDS011;43162;51.040;18.244;2023-12-20T00:41:24;7.10;;;4.70;;
57327;SDS011;43162;51.040;18.244;2023-12-20T00:43:50;9.60;;;5.10;;
57327;SDS011;43162;51.040;18.244;2023-12-20T00:46:15;11.50;;;5.30;;
57327;SDS011;43162;51.040;18.244;2023-12-20T00:48:41;11.60;;;5.80;;
57327;SDS011;43162;51.040;18.244;2023-12-20T00:51:07;7.70;;;4.60;;
57327;SDS011;43162;51.040;18.244;2023-12-20T00:53:33;9.20;;;4.90;;
57327;SDS011;43162;51.040;18.244;2023-12-20T00:55:58;9.60;;;5.30;;
57327;SDS011;43162;51.040;18.244;2023-12-20T00:58:24;10.70;;;5.30;;
57327;SDS011;43162;51.040;18.244;2023-12-20T01:00:50;10.90;;;6.30;;
57327;SDS011;43162;51.040;18.244;2023-12-20T01:03:15;10.50;;;6.80;;
57327;SDS011;43162;51.040;18.244;2023-12-20T01:05:41;13.60;;;5.90;;
57327;SDS011;43162;51.040;18.244;2023-12-20T01:08:06;11.90;;;6.50;;
57327;SDS011;43162;51.040;18.244;2023-12-20T01:10:32;12.00;;;7.00;;
57327;SDS011;43162;51.040;18.244;2023-12-20T01:12:57;12.40;;;7.10;;
57327;SDS011;43162;51.040;18.244;2023-12-20T01:15:23;9.40;;;6.30;;
57327;SDS011;43162;51.040;18.244;2023-12-20T01:17:48;9.90;;;6.50;;
57327;SDS011;43162;51.040;18.244;2023-12-20T01:20:14;7.90;;;5.60;;
57327;SDS011;43162;51.040;18.244;2023-12-20T01:22:40;9.90;;;6.00;;
57327;SDS011;43162;51.040;18.244;2023-12-20T01:25:08;10.60;;;7.00;;
57327;SDS011;43162;51.040;18.244;2023-12-20T01:27:33;7.90;;;4.90;;
57327;SDS011;43162;51.040;18.244;2023-12-20T01:29:59;10.20;;;6.20;;
57327;SDS011;43162;51.040;18.244;2023-12-20T01:32:25;11.70;;;6.10;;
57327;SDS011;43162;51.040;18.244;2023-12-20T01:34:50;14.60;;;6.30;;
57327;SDS011;43162;51.040;18.244;2023-12-20T01:37:16;9.40;;;5.50;;
57327;SDS011;43162;51.040;18.244;2023-12-20T01:39:41;7.90;;;5.40;;
57327;SDS011;43162;51.040;18.244;2023-12-20T01:42:07;8.30;;;5.10;;
57327;SDS011;43162;51.040;18.244;2023-12-20T01:44:32;9.30;;;4.90;;
57327;SDS011;43162;51.040;18.244;2023-12-20T01:46:58;8.10;;;6.10;;
57327;SDS011;43162;51.040;18.244;2023-12-20T01:49:23;9.00;;;5.70;;
57327;SDS011;43162;51.040;18.244;2023-12-20T01:51:49;6.30;;;4.30;;
57327;SDS011;43162;51.040;18.244;2023-12-20T01:54:15;12.60;;;5.70;;
57327;SDS011;43162;51.040;18.244;2023-12-20T01:56:41;9.90;;;5.40;;
57327;SDS011;43162;51.040;18.244;2023-12-20T01:59:07;9.70;;;5.60;;
57327;SDS011;43162;51.040;18.244;2023-12-20T02:01:35;7.80;;;5.50;;
57327;SDS011;43162;51.040;18.244;2023-12-20T02:04:01;15.00;;;5.50;;
57327;SDS011;43162;51.040;18.244;2023-12-20T02:06:29;11.50;;;6.90;;
57327;SDS011;43162;51.040;18.244;2023-12-20T02:08:58;8.70;;;5.80;;
57327;SDS011;43162;51.040;18.244;2023-12-20T02:11:25;11.50;;;6.20;;
57327;SDS011;43162;51.040;18.244;2023-12-20T02:13:51;6.70;;;4.90;;
57327;SDS011;43162;51.040;18.244;2023-12-20T02:16:17;11.00;;;7.00;;
57327;SDS011;43162;51.040;18.244;2023-12-20T02:18:43;10.10;;;5.10;;
57327;SDS011;43162;51.040;18.244;2023-12-20T02:21:10;13.30;;;6.90;;
57327;SDS011;43162;51.040;18.244;2023-12-20T02:23:35;8.30;;;4.80;;
57327;SDS011;43162;51.040;18.244;2023-12-20T02:26:01;7.90;;;5.50;;
57327;SDS011;43162;51.040;18.244;2023-12-20T02:28:27;17.20;;;7.50;;
57327;SDS011;43162;51.040;18.244;2023-12-20T02:30:53;8.70;;;6.80;;
57327;SDS011;43162;51.040;18.244;2023-12-20T02:33:19;10.90;;;6.50;;
57327;SDS011;43162;51.040;18.244;2023-12-20T02:35:44;11.90;;;7.30;;
57327;SDS011;43162;51.040;18.244;2023-12-20T02:38:10;10.70;;;6.00;;
57327;SDS011;43162;51.040;18.244;2023-12-20T02:40:35;12.20;;;8.30;;
57327;SDS011;43162;51.040;18.244;2023-12-20T02:43:01;8.90;;;5.60;;
57327;SDS011;43162;51.040;18.244;2023-12-20T02:45:26;11.70;;;7.00;;
57327;SDS011;43162;51.040;18.244;2023-12-20T02:47:52;10.10;;;7.50;;
57327;SDS011;43162;51.040;18.244;2023-12-20T02:50:17;15.00;;;8.80;;
57327;SDS011;43162;51.040;18.244;2023-12-20T02:52:46;11.40;;;7.90;;
57327;SDS011;43162;51.040;18.244;2023-12-20T02:55:11;12.50;;;7.40;;
57327;SDS011;43162;51.040;18.244;2023-12-20T02:57:37;12.20;;;6.70;;
57327;SDS011;43162;51.040;18.244;2023-12-20T03:00:08;13.00;;;8.40;;
57327;SDS011;43162;51.040;18.244;2023-12-20T03:02:34;15.00;;;9.00;;
57327;SDS011;43162;51.040;18.244;2023-12-20T03:05:00;12.20;;;8.10;;
57327;SDS011;43162;51.040;18.244;2023-12-20T03:07:26;11.50;;;7.50;;
57327;SDS011;43162;51.040;18.244;2023-12-20T03:09:52;11.00;;;7.20;;
57327;SDS011;43162;51.040;18.244;2023-12-20T03:12:17;15.50;;;10.00;;
57327;SDS011;43162;51.040;18.244;2023-12-20T03:14:43;18.60;;;9.20;;
57327;SDS011;43162;51.040;18.244;2023-12-20T03:17:09;12.40;;;6.70;;
57327;SDS011;43162;51.040;18.244;2023-12-20T03:19:35;16.20;;;8.60;;
57327;SDS011;43162;51.040;18.244;2023-12-20T03:22:01;12.20;;;8.20;;
57327;SDS011;43162;51.040;18.244;2023-12-20T03:24:27;15.80;;;10.10;;
57327;SDS011;43162;51.040;18.244;2023-12-20T03:26:53;14.70;;;8.40;;
57327;SDS011;43162;51.040;18.244;2023-12-20T03:29:18;14.80;;;9.90;;
57327;SDS011;43162;51.040;18.244;2023-12-20T03:31:44;17.40;;;10.50;;
57327;SDS011;43162;51.040;18.244;2023-12-20T03:34:09;18.10;;;11.40;;
57327;SDS011;43162;51.040;18.244;2023-12-20T03:36:35;14.00;;;8.30;;
57327;SDS011;43162;51.040;18.244;2023-12-20T03:39:01;14.40;;;10.00;;
57327;SDS011;43162;51.040;18.244;2023-12-20T03:41:26;15.10;;;8.40;;
57327;SDS011;43162;51.040;18.244;2023-12-20T03:43:52;15.00;;;10.20;;
57327;SDS011;43162;51.040;18.244;2023-12-20T03:46:17;16.50;;;11.00;;
57327;SDS011;43162;51.040;18.244;2023-12-20T03:48:43;15.20;;;9.80;;
57327;SDS011;43162;51.040;18.244;2023-12-20T03:51:08;14.00;;;10.00;;
57327;SDS011;43162;51.040;18.244;2023-12-20T03:53:34;12.20;;;8.90;;
57327;SDS011;43162;51.040;18.244;2023-12-20T03:55:59;12.50;;;9.20;;
57327;SDS011;43162;51.040;18.244;2023-12-20T03:58:25;10.80;;;7.70;;
57327;SDS011;43162;51.040;18.244;2023-12-20T04:00:50;11.90;;;7.10;;
57327;SDS011;43162;51.040;18.244;2023-12-20T04:03:16;8.50;;;6.40;;
57327;SDS011;43162;51.040;18.244;2023-12-20T04:05:41;8.70;;;6.50;;
57327;SDS011;43162;51.040;18.244;2023-12-20T04:08:07;9.40;;;5.60;;
57327;SDS011;43162;51.040;18.244;2023-12-20T04:10:33;7.30;;;5.50;;
57327;SDS011;43162;51.040;18.244;2023-12-20T04:12:58;6.60;;;4.90;;
57327;SDS011;43162;51.040;18.244;2023-12-20T04:15:24;9.60;;;5.80;;
57327;SDS011;43162;51.040;18.244;2023-12-20T04:17:49;7.90;;;6.00;;
57327;SDS011;43162;51.040;18.244;2023-12-20T04:20:15;8.00;;;5.40;;
57327;SDS011;43162;51.040;18.244;2023-12-20T04:22:40;8.20;;;5.80;;
57327;SDS011;43162;51.040;18.244;2023-12-20T04:25:07;7.20;;;4.80;;
57327;SDS011;43162;51.040;18.244;2023-12-20T04:27:33;9.20;;;5.60;;
57327;SDS011;43162;51.040;18.244;2023-12-20T04:29:59;7.60;;;5.00;;
57327;SDS011;43162;51.040;18.244;2023-12-20T04:32:24;7.70;;;5.10;;
57327;SDS011;43162;51.040;18.244;2023-12-20T04:34:50;6.90;;;4.60;;
57327;SDS011;43162;51.040;18.244;2023-12-20T04:37:15;7.90;;;5.20;;
57327;SDS011;43162;51.040;18.244;2023-12-20T04:39:41;6.80;;;5.20;;
57327;SDS011;43162;51.040;18.244;2023-12-20T04:42:07;7.80;;;4.40;;
57327;SDS011;43162;51.040;18.244;2023-12-20T04:44:33;7.60;;;4.70;;
57327;SDS011;43162;51.040;18.244;2023-12-20T04:46:59;7.80;;;4.60;;
57327;SDS011;43162;51.040;18.244;2023-12-20T04:49:25;6.90;;;4.60;;
57327;SDS011;43162;51.040;18.244;2023-12-20T04:51:50;7.80;;;4.40;;
57327;SDS011;43162;51.040;18.244;2023-12-20T04:54:16;6.90;;;3.60;;
57327;SDS011;43162;51.040;18.244;2023-12-20T04:56:41;3.10;;;2.70;;
57327;SDS011;43162;51.040;18.244;2023-12-20T04:59:07;5.80;;;3.30;;
57327;SDS011;43162;51.040;18.244;2023-12-20T05:01:33;4.50;;;2.90;;
57327;SDS011;43162;51.040;18.244;2023-12-20T05:03:58;3.20;;;2.20;;
57327;SDS011;43162;51.040;18.244;2023-12-20T05:06:24;1.70;;;1.20;;
57327;SDS011;43162;51.040;18.244;2023-12-20T05:08:50;2.60;;;1.60;;
57327;SDS011;43162;51.040;18.244;2023-12-20T05:11:15;1.70;;;1.10;;
57327;SDS011;43162;51.040;18.244;2023-12-20T05:13:41;1.50;;;1.20;;
57327;SDS011;43162;51.040;18.244;2023-12-20T05:16:06;1.60;;;1.20;;
57327;SDS011;43162;51.040;18.244;2023-12-20T05:18:32;2.20;;;1.50;;
57327;SDS011;43162;51.040;18.244;2023-12-20T05:20:58;2.40;;;1.20;;
57327;SDS011;43162;51.040;18.244;2023-12-20T05:23:23;2.50;;;1.10;;
57327;SDS011;43162;51.040;18.244;2023-12-20T05:25:49;2.20;;;1.20;;
57327;SDS011;43162;51.040;18.244;2023-12-20T05:28:15;1.40;;;0.90;;
57327;SDS011;43162;51.040;18.244;2023-12-20T05:30:40;2.30;;;1.40;;
57327;SDS011;43162;51.040;18.244;2023-12-20T05:33:06;0.60;;;0.60;;
57327;SDS011;43162;51.040;18.244;2023-12-20T05:35:31;1.70;;;0.70;;
57327;SDS011;43162;51.040;18.244;2023-12-20T05:37:57;0.60;;;0.50;;
57327;SDS011;43162;51.040;18.244;2023-12-20T05:40:22;2.70;;;1.00;;
57327;SDS011;43162;51.040;18.244;2023-12-20T05:42:47;1.70;;;1.20;;
57327;SDS011;43162;51.040;18.244;2023-12-20T05:45:14;1.70;;;0.80;;
57327;SDS011;43162;51.040;18.244;2023-12-20T05:47:40;0.60;;;0.60;;
57327;SDS011;43162;51.040;18.244;2023-12-20T05:50:05;0.50;;;0.50;;
57327;SDS011;43162;51.040;18.244;2023-12-20T05:52:31;1.30;;;0.80;;
57327;SDS011;43162;51.040;18.244;2023-12-20T05:54:57;0.40;;;0.30;;
57327;SDS011;43162;51.040;18.244;2023-12-20T05:57:26;1.40;;;0.70;;
57327;SDS011;43162;51.040;18.244;2023-12-20T05:59:52;0.90;;;0.60;;
57327;SDS011;43162;51.040;18.244;2023-12-20T06:02:18;1.60;;;1.00;;
57327;SDS011;43162;51.040;18.244;2023-12-20T06:04:44;1.00;;;0.60;;
57327;SDS011;43162;51.040;18.244;2023-12-20T06:07:13;1.50;;;1.00;;
57327;SDS011;43162;51.040;18.244;2023-12-20T06:09:40;2.00;;;1.20;;
57327;SDS011;43162;51.040;18.244;2023-12-20T06:12:06;2.20;;;1.60;;
57327;SDS011;43162;51.040;18.244;2023-12-20T06:14:33;1.90;;;1.40;;
57327;SDS011;43162;51.040;18.244;2023-12-20T06:16:59;1.70;;;1.10;;
57327;SDS011;43162;51.040;18.244;2023-12-20T06:19:26;1.90;;;1.00;;
57327;SDS011;43162;51.040;18.244;2023-12-20T06:21:53;1.00;;;0.80;;
57327;SDS011;43162;51.040;18.244;2023-12-20T06:24:18;1.20;;;0.60;;
57327;SDS011;43162;51.040;18.244;2023-12-20T06:26:44;1.60;;;0.90;;
57327;SDS011;43162;51.040;18.244;2023-12-20T06:29:09;0.70;;;0.70;;
57327;SDS011;43162;51.040;18.244;2023-12-20T06:31:35;1.30;;;0.70;;
57327;SDS011;43162;51.040;18.244;2023-12-20T06:34:00;1.00;;;0.60;;
57327;SDS011;43162;51.040;18.244;2023-12-20T06:36:26;1.70;;;0.90;;
57327;SDS011;43162;51.040;18.244;2023-12-20T06:38:52;1.20;;;0.90;;
57327;SDS011;43162;51.040;18.244;2023-12-20T06:41:18;1.10;;;1.00;;
57327;SDS011;43162;51.040;18.244;2023-12-20T06:43:43;1.60;;;1.10;;
57327;SDS011;43162;51.040;18.244;2023-12-20T06:46:09;0.90;;;0.80;;
57327;SDS011;43162;51.040;18.244;2023-12-20T06:48:35;0.60;;;0.60;;
57327;SDS011;43162;51.040;18.244;2023-12-20T06:51:00;0.90;;;0.60;;
57327;SDS011;43162;51.040;18.244;2023-12-20T06:53:27;0.70;;;0.70;;
57327;SDS011;43162;51.040;18.244;2023-12-20T06:55:53;0.50;;;0.50;;
57327;SDS011;43162;51.040;18.244;2023-12-20T06:58:21;0.20;;;0.20;;
57327;SDS011;43162;51.040;18.244;2023-12-20T07:00:47;0.20;;;0.20;;
57327;SDS011;43162;51.040;18.244;2023-12-20T07:03:13;0.10;;;0.10;;
57327;SDS011;43162;51.040;18.244;2023-12-20T07:05:39;0.10;;;0.10;;
57327;SDS011;43162;51.040;18.244;2023-12-20T07:08:12;0.60;;;0.20;;
57327;SDS011;43162;51.040;18.244;2023-12-20T07:10:39;0.30;;;0.30;;
57327;SDS011;43162;51.040;18.244;2023-12-20T07:13:05;0.50;;;0.50;;
57327;SDS011;43162;51.040;18.244;2023-12-20T07:15:31;0.50;;;0.50;;
57327;SDS011;43162;51.040;18.244;2023-12-20T07:17:56;0.40;;;0.40;;
57327;SDS011;43162;51.040;18.244;2023-12-20T07:20:22;1.20;;;0.60;;
57327;SDS011;43162;51.040;18.244;2023-12-20T07:22:47;0.30;;;0.30;;
57327;SDS011;43162;51.040;18.244;2023-12-20T07:25:13;1.30;;;0.40;;
57327;SDS011;43162;51.040;18.244;2023-12-20T07:27:39;1.10;;;0.40;;
57327;SDS011;43162;51.040;18.244;2023-12-20T07:30:04;0.40;;;0.40;;
57327;SDS011;43162;51.040;18.244;2023-12-20T07:32:30;0.50;;;0.40;;
57327;SDS011;43162;51.040;18.244;2023-12-20T07:34:57;1.70;;;0.50;;
57327;SDS011;43162;51.040;18.244;2023-12-20T07:37:22;1.80;;;0.80;;
57327;SDS011;43162;51.040;18.244;2023-12-20T07:39:48;2.30;;;1.20;;
57327;SDS011;43162;51.040;18.244;2023-12-20T07:42:13;0.80;;;0.60;;
57327;SDS011;43162;51.040;18.244;2023-12-20T07:44:39;1.00;;;0.90;;
57327;SDS011;43162;51.040;18.244;2023-12-20T07:47:04;0.60;;;0.60;;
57327;SDS011;43162;51.040;18.244;2023-12-20T07:49:31;0.60;;;0.50;;
57327;SDS011;43162;51.040;18.244;2023-12-20T07:51:57;1.00;;;0.70;;
57327;SDS011;43162;51.040;18.244;2023-12-20T07:54:22;1.40;;;0.60;;
57327;SDS011;43162;51.040;18.244;2023-12-20T07:56:48;0.90;;;0.50;;
57327;SDS011;43162;51.040;18.244;2023-12-20T07:59:14;0.30;;;0.30;;
57327;SDS011;43162;51.040;18.244;2023-12-20T08:01:39;0.80;;;0.50;;
57327;SDS011;43162;51.040;18.244;2023-12-20T08:04:05;2.00;;;0.80;;
57327;SDS011;43162;51.040;18.244;2023-12-20T08:06:30;1.70;;;1.00;;
57327;SDS011;43162;51.040;18.244;2023-12-20T08:08:56;1.50;;;1.10;;
57327;SDS011;43162;51.040;18.244;2023-12-20T08:11:21;0.60;;;0.50;;
57327;SDS011;43162;51.040;18.244;2023-12-20T08:13:46;0.80;;;0.60;;
57327;SDS011;43162;51.040;18.244;2023-12-20T08:16:12;0.70;;;0.60;;
57327;SDS011;43162;51.040;18.244;2023-12-20T08:18:39;0.60;;;0.50;;
57327;SDS011;43162;51.040;18.244;2023-12-20T08:21:04;0.50;;;0.40;;
57327;SDS011;43162;51.040;18.244;2023-12-20T08:23:33;1.10;;;0.60;;
57327;SDS011;43162;51.040;18.244;2023-12-20T08:26:03;0.80;;;0.50;;
57327;SDS011;43162;51.040;18.244;2023-12-20T08:28:32;1.20;;;0.70;;
57327;SDS011;43162;51.040;18.244;2023-12-20T08:30:58;2.40;;;1.00;;
57327;SDS011;43162;51.040;18.244;2023-12-20T08:33:24;0.90;;;0.70;;
57327;SDS011;43162;51.040;18.244;2023-12-20T08:35:50;2.50;;;0.80;;
57327;SDS011;43162;51.040;18.244;2023-12-20T08:38:16;2.10;;;0.90;;
57327;SDS011;43162;51.040;18.244;2023-12-20T08:40:43;1.50;;;0.90;;
57327;SDS011;43162;51.040;18.244;2023-12-20T08:43:09;1.50;;;0.90;;
57327;SDS011;43162;51.040;18.244;2023-12-20T08:45:35;1.20;;;1.10;;
57327;SDS011;43162;51.040;18.244;2023-12-20T08:48:00;1.60;;;0.80;;
57327;SDS011;43162;51.040;18.244;2023-12-20T08:50:26;1.50;;;1.00;;
57327;SDS011;43162;51.040;18.244;2023-12-20T08:52:52;1.70;;;1.20;;
57327;SDS011;43162;51.040;18.244;2023-12-20T08:55:18;2.60;;;1.40;;
57327;SDS011;43162;51.040;18.244;2023-12-20T08:57:44;1.70;;;0.90;;
57327;SDS011;43162;51.040;18.244;2023-12-20T09:00:10;2.70;;;0.90;;
57327;SDS011;43162;51.040;18.244;2023-12-20T09:02:36;3.40;;;1.40;;
57327;SDS011;43162;51.040;18.244;2023-12-20T09:05:03;2.10;;;1.10;;
57327;SDS011;43162;51.040;18.244;2023-12-20T09:07:29;2.60;;;1.30;;
57327;SDS011;43162;51.040;18.244;2023-12-20T09:09:57;2.70;;;1.30;;
57327;SDS011;43162;51.040;18.244;2023-12-20T09:12:23;2.90;;;1.10;;
57327;SDS011;43162;51.040;18.244;2023-12-20T09:14:49;1.50;;;1.10;;
57327;SDS011;43162;51.040;18.244;2023-12-20T09:17:15;2.10;;;1.30;;
57327;SDS011;43162;51.040;18.244;2023-12-20T09:19:42;2.80;;;1.20;;
57327;SDS011;43162;51.040;18.244;2023-12-20T09:22:10;3.60;;;1.40;;
57327;SDS011;43162;51.040;18.244;2023-12-20T09:24:36;3.30;;;1.60;;
57327;SDS011;43162;51.040;18.244;2023-12-20T09:27:02;2.60;;;1.10;;
57327;SDS011;43162;51.040;18.244;2023-12-20T09:29:28;4.60;;;1.40;;
57327;SDS011;43162;51.040;18.244;2023-12-20T09:31:54;2.40;;;1.10;;
57327;SDS011;43162;51.040;18.244;2023-12-20T09:34:21;0.90;;;0.50;;
57327;SDS011;43162;51.040;18.244;2023-12-20T09:36:47;1.60;;;0.90;;
57327;SDS011;43162;51.040;18.244;2023-12-20T09:39:17;1.90;;;0.60;;
57327;SDS011;43162;51.040;18.244;2023-12-20T09:41:45;0.50;;;0.40;;
57327;SDS011;43162;51.040;18.244;2023-12-20T09:44:15;1.20;;;0.90;;
57327;SDS011;43162;51.040;18.244;2023-12-20T09:46:44;3.70;;;0.60;;
57327;SDS011;43162;51.040;18.244;2023-12-20T09:49:11;1.10;;;0.50;;
57327;SDS011;43162;51.040;18.244;2023-12-20T09:51:37;1.60;;;0.70;;
57327;SDS011;43162;51.040;18.244;2023-12-20T09:54:03;1.10;;;0.60;;
57327;SDS011;43162;51.040;18.244;2023-12-20T09:56:29;1.40;;;0.80;;
57327;SDS011;43162;51.040;18.244;2023-12-20T09:58:55;1.70;;;0.80;;
57327;SDS011;43162;51.040;18.244;2023-12-20T10:01:21;0.30;;;0.30;;
57327;SDS011;43162;51.040;18.244;2023-12-20T10:03:47;0.60;;;0.40;;
57327;SDS011;43162;51.040;18.244;2023-12-20T10:06:13;0.90;;;0.70;;
57327;SDS011;43162;51.040;18.244;2023-12-20T10:08:39;6.80;;;1.00;;
57327;SDS011;43162;51.040;18.244;2023-12-20T10:11:04;0.90;;;0.50;;
57327;SDS011;43162;51.040;18.244;2023-12-20T10:13:30;0.60;;;0.40;;
57327;SDS011;43162;51.040;18.244;2023-12-20T10:15:56;0.40;;;0.40;;
57327;SDS011;43162;51.040;18.244;2023-12-20T10:18:22;2.70;;;0.60;;
57327;SDS011;43162;51.040;18.244;2023-12-20T10:20:48;1.10;;;0.60;;
57327;SDS011;43162;51.040;18.244;2023-12-20T10:23:15;1.60;;;0.70;;
57327;SDS011;43162;51.040;18.244;2023-12-20T10:25:41;0.50;;;0.40;;
57327;SDS011;43162;51.040;18.244;2023-12-20T10:28:11;3.70;;;0.70;;
57327;SDS011;43162;51.040;18.244;2023-12-20T10:30:38;0.90;;;0.60;;
57327;SDS011;43162;51.040;18.244;2023-12-20T10:33:05;0.90;;;0.50;;
57327;SDS011;43162;51.040;18.244;2023-12-20T10:35:32;1.40;;;0.60;;
57327;SDS011;43162;51.040;18.244;2023-12-20T10:37:57;0.60;;;0.40;;
57327;SDS011;43162;51.040;18.244;2023-12-20T10:40:25;1.30;;;0.80;;
57327;SDS011;43162;51.040;18.244;2023-12-20T10:42:51;0.50;;;0.50;;
57327;SDS011;43162;51.040;18.244;2023-12-20T10:45:17;1.70;;;0.60;;
57327;SDS011;43162;51.040;18.244;2023-12-20T10:47:44;0.60;;;0.50;;
57327;SDS011;43162;51.040;18.244;2023-12-20T10:50:12;0.60;;;0.60;;
57327;SDS011;43162;51.040;18.244;2023-12-20T10:52:37;1.70;;;0.90;;
57327;SDS011;43162;51.040;18.244;2023-12-20T10:55:04;1.00;;;0.80;;
57327;SDS011;43162;51.040;18.244;2023-12-20T10:57:30;2.30;;;1.10;;
57327;SDS011;43162;51.040;18.244;2023-12-20T10:59:55;0.90;;;0.50;;
57327;SDS011;43162;51.040;18.244;2023-12-20T11:02:32;1.70;;;1.10;;
57327;SDS011;43162;51.040;18.244;2023-12-20T11:05:20;1.20;;;1.00;;
57327;SDS011;43162;51.040;18.244;2023-12-20T11:08:08;2.50;;;1.10;;
57327;SDS011;43162;51.040;18.244;2023-12-20T11:10:55;2.80;;;0.90;;
57327;SDS011;43162;51.040;18.244;2023-12-20T11:13:26;3.40;;;1.40;;
57327;SDS011;43162;51.040;18.244;2023-12-20T11:15:56;1.10;;;0.90;;
57327;SDS011;43162;51.040;18.244;2023-12-20T11:18:27;1.80;;;1.20;;
57327;SDS011;43162;51.040;18.244;2023-12-20T11:20:54;3.00;;;1.20;;
57327;SDS011;43162;51.040;18.244;2023-12-20T11:23:20;2.10;;;0.90;;
57327;SDS011;43162;51.040;18.244;2023-12-20T11:25:53;1.60;;;1.30;;
57327;SDS011;43162;51.040;18.244;2023-12-20T11:28:22;1.30;;;0.80;;
57327;SDS011;43162;51.040;18.244;2023-12-20T11:30:55;2.10;;;1.00;;
57327;SDS011;43162;51.040;18.244;2023-12-20T11:33:24;3.10;;;1.20;;
57327;SDS011;43162;51.040;18.244;2023-12-20T11:35:57;4.70;;;1.40;;
57327;SDS011;43162;51.040;18.244;2023-12-20T11:38:23;2.40;;;1.30;;
57327;SDS011;43162;51.040;18.244;2023-12-20T11:40:49;2.30;;;1.00;;
57327;SDS011;43162;51.040;18.244;2023-12-20T11:43:31;2.40;;;1.00;;
57327;SDS011;43162;51.040;18.244;2023-12-20T11:46:02;2.40;;;0.90;;
57327;SDS011;43162;51.040;18.244;2023-12-20T11:48:31;3.90;;;0.90;;
57327;SDS011;43162;51.040;18.244;2023-12-20T11:50:58;2.60;;;1.00;;
57327;SDS011;43162;51.040;18.244;2023-12-20T11:53:23;1.70;;;1.20;;
57327;SDS011;43162;51.040;18.244;2023-12-20T11:55:49;6.40;;;1.20;;
57327;SDS011;43162;51.040;18.244;2023-12-20T11:58:14;11.90;;;2.40;;
57327;SDS011;43162;51.040;18.244;2023-12-20T12:00:42;14.30;;;3.80;;
57327;SDS011;43162;51.040;18.244;2023-12-20T12:03:08;1.40;;;0.60;;
57327;SDS011;43162;51.040;18.244;2023-12-20T12:05:34;0.80;;;0.60;;
57327;SDS011;43162;51.040;18.244;2023-12-20T12:08:02;1.10;;;0.70;;
57327;SDS011;43162;51.040;18.244;2023-12-20T12:10:31;1.00;;;0.70;;
57327;SDS011;43162;51.040;18.244;2023-12-20T12:12:56;2.20;;;0.70;;
57327;SDS011;43162;51.040;18.244;2023-12-20T12:15:22;1.30;;;0.80;;
57327;SDS011;43162;51.040;18.244;2023-12-20T12:17:54;1.60;;;0.80;;
57327;SDS011;43162;51.040;18.244;2023-12-20T12:20:21;3.00;;;0.60;;
57327;SDS011;43162;51.040;18.244;2023-12-20T12:22:57;4.10;;;1.10;;
57327;SDS011;43162;51.040;18.244;2023-12-20T12:25:26;3.00;;;1.20;;
57327;SDS011;43162;51.040;18.244;2023-12-20T12:27:52;2.80;;;0.80;;
57327;SDS011;43162;51.040;18.244;2023-12-20T12:30:18;2.20;;;0.80;;
57327;SDS011;43162;51.040;18.244;2023-12-20T12:32:44;5.50;;;1.50;;
57327;SDS011;43162;51.040;18.244;2023-12-20T12:35:10;1.40;;;0.70;;
57327;SDS011;43162;51.040;18.244;2023-12-20T12:37:37;3.10;;;2.00;;
57327;SDS011;43162;51.040;18.244;2023-12-20T12:40:11;0.80;;;0.70;;
57327;SDS011;43162;51.040;18.244;2023-12-20T12:42:38;3.50;;;1.40;;
57327;SDS011;43162;51.040;18.244;2023-12-20T12:45:05;3.50;;;1.10;;
57327;SDS011;43162;51.040;18.244;2023-12-20T12:47:31;3.40;;;1.00;;
57327;SDS011;43162;51.040;18.244;2023-12-20T12:49:56;1.80;;;1.10;;
57327;SDS011;43162;51.040;18.244;2023-12-20T12:52:22;8.80;;;1.00;;
57327;SDS011;43162;51.040;18.244;2023-12-20T12:54:48;3.30;;;1.00;;
57327;SDS011;43162;51.040;18.244;2023-12-20T12:57:14;4.70;;;0.90;;
57327;SDS011;43162;51.040;18.244;2023-12-20T12:59:41;1.20;;;0.70;;
57327;SDS011;43162;51.040;18.244;2023-12-20T13:02:07;3.30;;;0.80;;
57327;SDS011;43162;51.040;18.244;2023-12-20T13:04:33;2.60;;;1.10;;
57327;SDS011;43162;51.040;18.244;2023-12-20T13:06:59;4.90;;;1.20;;
57327;SDS011;43162;51.040;18.244;2023-12-20T13:09:24;3.10;;;0.80;;
57327;SDS011;43162;51.040;18.244;2023-12-20T13:11:50;4.10;;;0.80;;
57327;SDS011;43162;51.040;18.244;2023-12-20T13:14:16;3.80;;;1.30;;
57327;SDS011;43162;51.040;18.244;2023-12-20T13:16:42;1.90;;;1.10;;
57327;SDS011;43162;51.040;18.244;2023-12-20T13:19:08;4.60;;;1.60;;
57327;SDS011;43162;51.040;18.244;2023-12-20T13:21:35;2.70;;;0.80;;
57327;SDS011;43162;51.040;18.244;2023-12-20T13:24:01;1.40;;;1.00;;
57327;SDS011;43162;51.040;18.244;2023-12-20T13:26:27;4.20;;;0.80;;
57327;SDS011;43162;51.040;18.244;2023-12-20T13:28:53;5.40;;;1.50;;
57327;SDS011;43162;51.040;18.244;2023-12-20T13:31:19;5.80;;;1.50;;
57327;SDS011;43162;51.040;18.244;2023-12-20T13:33:45;5.00;;;1.10;;
57327;SDS011;43162;51.040;18.244;2023-12-20T13:36:11;3.20;;;1.10;;
57327;SDS011;43162;51.040;18.244;2023-12-20T13:38:37;3.20;;;0.60;;
57327;SDS011;43162;51.040;18.244;2023-12-20T13:41:03;7.10;;;1.10;;
57327;SDS011;43162;51.040;18.244;2023-12-20T13:43:30;7.80;;;1.30;;
57327;SDS011;43162;51.040;18.244;2023-12-20T13:46:00;5.30;;;1.30;;
57327;SDS011;43162;51.040;18.244;2023-12-20T13:48:26;7.10;;;1.60;;
57327;SDS011;43162;51.040;18.244;2023-12-20T13:50:52;6.40;;;2.00;;
57327;SDS011;43162;51.040;18.244;2023-12-20T13:53:17;3.40;;;1.80;;
57327;SDS011;43162;51.040;18.244;2023-12-20T13:55:44;6.10;;;2.20;;
57327;SDS011;43162;51.040;18.244;2023-12-20T13:58:10;5.20;;;2.00;;
57327;SDS011;43162;51.040;18.244;2023-12-20T14:00:35;4.90;;;1.30;;
57327;SDS011;43162;51.040;18.244;2023-12-20T14:03:02;6.10;;;1.40;;
57327;SDS011;43162;51.040;18.244;2023-12-20T14:05:30;3.90;;;1.30;;
57327;SDS011;43162;51.040;18.244;2023-12-20T14:07:56;5.10;;;1.90;;
57327;SDS011;43162;51.040;18.244;2023-12-20T14:10:25;3.80;;;1.50;;
57327;SDS011;43162;51.040;18.244;2023-12-20T14:12:54;9.90;;;2.10;;
57327;SDS011;43162;51.040;18.244;2023-12-20T14:15:20;1.70;;;1.00;;
57327;SDS011;43162;51.040;18.244;2023-12-20T14:17:45;4.40;;;1.10;;
57327;SDS011;43162;51.040;18.244;2023-12-20T14:20:11;3.70;;;1.40;;
57327;SDS011;43162;51.040;18.244;2023-12-20T14:22:39;2.40;;;0.90;;
57327;SDS011;43162;51.040;18.244;2023-12-20T14:25:12;6.70;;;1.50;;